Time;durP1;ratioP1;P1;durP2;ratioP2;P2;SDS_P1;SDS_P2;PMS_P1;PMS_P2;Temp;Humidity;BMP_temperature;BMP_pressure;BME280_temperature;BME280_humidity;BME280_pressure;Samples;Min_cycle;Max_cycle;Signal;HPM_P1;HPM_P2
2021/08/10 00:02:19;;;;;;;7.75;4.53;;;;;;;;;;5118285;27;20030;-74
2021/08/10 00:04:45;;;;;;;10.93;4.43;;;;;;;;;;5133389;27;20041;-74
2021/08/10 00:07:10;;;;;;;8.30;5.10;;;;;;;;;;5115091;27;20039;-74
2021/08/10 00:09:36;;;;;;;8.00;4.55;;;;;;;;;;5134163;27;20076;-74
2021/08/10 00:12:01;;;;;;;8.45;5.03;;;;;;;;;;5133782;27;20023;-74
2021/08/10 00:14:27;;;;;;;8.00;4.90;;;;;;;;;;5118945;27;20371;-74
2021/08/10 00:16:53;;;;;;;8.70;4.75;;;;;;;;;;5124113;27;20042;-74
2021/08/10 00:19:18;;;;;;;9.48;4.90;;;;;;;;;;5132921;27;20113;-75
2021/08/10 00:21:44;;;;;;;7.47;4.50;;;;;;;;;;5133140;27;20027;-74
2021/08/10 00:24:10;;;;;;;10.85;4.85;;;;;;;;;;5130817;27;20027;-74
2021/08/10 00:26:35;;;;;;;10.43;4.93;;;;;;;;;;5132290;27;20030;-75
2021/08/10 00:29:04;;;;;;;10.88;4.45;;;;;;;;;;5130952;27;20034;-74
2021/08/10 00:31:30;;;;;;;11.88;4.85;;;;;;;;;;5125219;27;20037;-75
2021/08/10 00:33:56;;;;;;;8.85;4.60;;;;;;;;;;5133319;27;20023;-75
2021/08/10 00:36:22;;;;;;;14.18;5.32;;;;;;;;;;5115174;27;20347;-75
2021/08/10 00:38:48;;;;;;;11.13;5.45;;;;;;;;;;5132406;27;20023;-74
2021/08/10 00:41:14;;;;;;;10.80;6.05;;;;;;;;;;5113010;27;20356;-75
2021/08/10 00:43:42;;;;;;;14.85;5.97;;;;;;;;;;5113244;28;20081;-75
2021/08/10 00:46:10;;;;;;;11.10;5.88;;;;;;;;;;5132251;27;20050;-74
2021/08/10 00:48:37;;;;;;;12.32;5.97;;;;;;;;;;5119250;27;20143;-74
2021/08/10 00:51:08;;;;;;;14.38;5.95;;;;;;;;;;5133304;27;20140;-74
2021/08/10 00:53:34;;;;;;;11.10;5.75;;;;;;;;;;5133169;27;20092;-74
2021/08/10 00:56:02;;;;;;;8.95;5.35;;;;;;;;;;5131892;27;20030;-74
2021/08/10 00:58:27;;;;;;;13.77;5.95;;;;;;;;;;5130118;27;20423;-74
2021/08/10 01:00:53;;;;;;;15.35;6.30;;;;;;;;;;5132278;27;20474;-74
2021/08/10 01:03:18;;;;;;;11.90;5.30;;;;;;;;;;5114200;27;20095;-74
2021/08/10 01:05:49;;;;;;;12.60;5.50;;;;;;;;;;5112730;28;20490;-74
2021/08/10 01:08:23;;;;;;;7.65;5.03;;;;;;;;;;5115282;27;20121;-75
2021/08/10 01:10:57;;;;;;;9.52;5.28;;;;;;;;;;5123243;27;20027;-74
2021/08/10 01:13:35;;;;;;;8.50;5.18;;;;;;;;;;5124162;27;20019;-75
2021/08/10 01:16:26;;;;;;;13.95;5.45;;;;;;;;;;5125115;27;20027;-74
2021/08/10 01:18:54;;;;;;;12.00;5.65;;;;;;;;;;5112609;28;20548;-74
2021/08/10 01:21:38;;;;;;;13.07;5.97;;;;;;;;;;5127018;27;20026;-75
2021/08/10 01:24:34;;;;;;;9.88;5.47;;;;;;;;;;5128773;27;20032;-74
2021/08/10 01:27:28;;;;;;;11.07;5.35;;;;;;;;;;5110858;27;20107;-75
2021/08/10 01:30:15;;;;;;;11.05;5.78;;;;;;;;;;5114278;28;20110;-75
2021/08/10 01:32:45;;;;;;;10.00;5.32;;;;;;;;;;5109650;28;20065;-75
2021/08/10 01:35:12;;;;;;;12.55;5.93;;;;;;;;;;5132566;27;20045;-75
2021/08/10 01:37:40;;;;;;;10.85;5.60;;;;;;;;;;5132462;27;20015;-74
2021/08/10 01:40:11;;;;;;;13.00;6.15;;;;;;;;;;5129836;27;20027;-74
2021/08/10 01:42:39;;;;;;;13.25;6.32;;;;;;;;;;5112400;28;20038;-75
2021/08/10 01:45:05;;;;;;;10.30;6.15;;;;;;;;;;5128292;28;20019;-75
2021/08/10 01:47:32;;;;;;;13.20;6.10;;;;;;;;;;5120431;28;20114;-75
2021/08/10 01:49:59;;;;;;;13.48;6.07;;;;;;;;;;5132109;28;20051;-74
2021/08/10 01:52:26;;;;;;;16.42;6.70;;;;;;;;;;5131915;28;20065;-74
2021/08/10 01:54:53;;;;;;;11.13;6.22;;;;;;;;;;5132582;28;20505;-75
2021/08/10 01:57:19;;;;;;;12.05;6.03;;;;;;;;;;5132422;28;20029;-74
2021/08/10 01:59:50;;;;;;;12.35;6.38;;;;;;;;;;5132350;28;20023;-74
2021/08/10 02:02:16;;;;;;;12.60;6.40;;;;;;;;;;5130208;28;20023;-74
2021/08/10 02:04:46;;;;;;;13.00;6.30;;;;;;;;;;5114639;28;20520;-75
2021/08/10 02:07:12;;;;;;;11.90;6.43;;;;;;;;;;5111880;28;20515;-74
2021/08/10 02:09:38;;;;;;;13.55;5.78;;;;;;;;;;5113688;28;20023;-74
2021/08/10 02:12:04;;;;;;;9.05;5.68;;;;;;;;;;5130375;28;20015;-74
2021/08/10 02:14:31;;;;;;;12.35;6.53;;;;;;;;;;5125948;28;20389;-75
2021/08/10 02:17:00;;;;;;;12.13;5.97;;;;;;;;;;5129363;28;20085;-74
2021/08/10 02:19:27;;;;;;;10.75;6.07;;;;;;;;;;5112017;28;20024;-75
2021/08/10 02:21:58;;;;;;;16.63;6.20;;;;;;;;;;5123079;27;20072;-75
2021/08/10 02:24:43;;;;;;;12.15;5.72;;;;;;;;;;5135924;27;20475;-75
2021/08/10 02:27:15;;;;;;;8.80;5.45;;;;;;;;;;5136254;27;20025;-75
2021/08/10 02:29:46;;;;;;;8.32;5.10;;;;;;;;;;5135669;27;20336;-74
2021/08/10 02:32:18;;;;;;;10.13;5.28;;;;;;;;;;5136064;27;20027;-75
2021/08/10 02:34:44;;;;;;;10.13;4.95;;;;;;;;;;5123924;27;20486;-75
2021/08/10 02:37:14;;;;;;;9.23;5.07;;;;;;;;;;5115353;27;20062;-75
2021/08/10 02:39:42;;;;;;;9.93;5.28;;;;;;;;;;5123679;27;20479;-75
2021/08/10 02:42:10;;;;;;;9.45;5.28;;;;;;;;;;5135644;27;20058;-75
2021/08/10 02:57:33;;;;;;;10.35;5.55;;;;;;;;;;5106380;27;1376186;-93
2021/08/10 03:00:17;;;;;;;11.10;5.40;;;;;;;;;;5131820;27;20043;-94
2021/08/10 03:02:56;;;;;;;9.18;4.70;;;;;;;;;;5130149;27;20023;-94
2021/08/10 03:05:23;;;;;;;8.35;5.10;;;;;;;;;;5117773;28;20041;-94
2021/08/10 03:07:54;;;;;;;10.65;5.25;;;;;;;;;;5130311;28;20602;-94
2021/08/10 03:10:22;;;;;;;10.43;5.43;;;;;;;;;;5130556;28;20404;-95
2021/08/10 03:12:50;;;;;;;9.02;5.43;;;;;;;;;;5130680;28;20545;-94
2021/08/10 03:15:20;;;;;;;9.45;5.60;;;;;;;;;;5130577;28;20500;-95
2021/08/10 03:17:46;;;;;;;13.25;6.63;;;;;;;;;;5130285;28;20571;-94
2021/08/10 03:20:15;;;;;;;12.85;6.03;;;;;;;;;;5130975;28;20027;-95
2021/08/10 03:22:43;;;;;;;13.10;6.25;;;;;;;;;;5115610;28;20020;-94
2021/08/10 03:25:10;;;;;;;12.93;7.03;;;;;;;;;;5110891;28;20032;-95
2021/08/10 03:27:37;;;;;;;14.05;7.13;;;;;;;;;;5115508;28;20081;-94
2021/08/10 03:30:04;;;;;;;13.00;7.80;;;;;;;;;;5134555;28;20297;-95
2021/08/10 03:32:32;;;;;;;15.68;8.32;;;;;;;;;;5137037;28;20119;-96
2021/08/10 03:34:59;;;;;;;16.25;8.32;;;;;;;;;;5135713;28;20024;-95
2021/08/10 03:37:24;;;;;;;17.23;8.07;;;;;;;;;;5137807;28;20591;-96
2021/08/10 03:39:51;;;;;;;11.60;8.82;;;;;;;;;;5140625;28;20023;-95
2021/08/10 03:42:16;;;;;;;19.60;9.25;;;;;;;;;;5139297;28;20027;-96
2021/08/10 03:44:42;;;;;;;18.02;10.27;;;;;;;;;;5118299;28;20024;-95
2021/08/10 03:47:14;;;;;;;18.15;8.88;;;;;;;;;;5122382;28;20059;-95
2021/08/10 03:49:41;;;;;;;14.20;9.25;;;;;;;;;;5116827;28;20485;-95
2021/08/10 03:52:10;;;;;;;16.38;9.57;;;;;;;;;;5113790;28;20089;-96
2021/08/10 03:54:36;;;;;;;12.73;9.00;;;;;;;;;;5098898;28;20055;-94
2021/08/10 03:57:02;;;;;;;16.08;9.25;;;;;;;;;;5106544;28;20040;-95
2021/08/10 03:59:28;;;;;;;20.10;9.13;;;;;;;;;;5104993;28;20032;-95
2021/08/10 04:01:55;;;;;;;16.27;9.07;;;;;;;;;;5103909;28;20040;-96
2021/08/10 04:04:21;;;;;;;13.63;9.07;;;;;;;;;;5103969;28;20105;-95
2021/08/10 04:06:46;;;;;;;14.85;9.25;;;;;;;;;;5101888;28;20024;-96
2021/08/10 04:09:12;;;;;;;18.08;8.52;;;;;;;;;;5101559;28;20017;-96
2021/08/10 04:11:39;;;;;;;18.67;8.88;;;;;;;;;;5103419;28;20057;-95
2021/08/10 04:14:07;;;;;;;20.02;9.48;;;;;;;;;;5102103;28;20027;-95
2021/08/10 04:16:45;;;;;;;15.15;8.45;;;;;;;;;;5101118;28;20119;-95
2021/08/10 04:19:13;;;;;;;17.55;9.18;;;;;;;;;;5099752;28;20024;-95
2021/08/10 04:21:39;;;;;;;15.27;9.02;;;;;;;;;;5102903;28;20075;-96
2021/08/10 04:24:05;;;;;;;14.60;9.18;;;;;;;;;;5102119;28;20044;-95
2021/08/10 04:26:33;;;;;;;18.20;8.63;;;;;;;;;;5094961;28;20062;-94
2021/08/10 04:29:00;;;;;;;20.33;9.55;;;;;;;;;;5095680;28;20382;-95
2021/08/10 04:31:25;;;;;;;12.75;8.90;;;;;;;;;;5096083;28;20111;-93
2021/08/10 04:33:50;;;;;;;21.90;9.75;;;;;;;;;;5093905;28;20107;-93
2021/08/10 04:36:16;;;;;;;19.35;9.60;;;;;;;;;;5094396;28;20085;-92
2021/08/10 04:38:41;;;;;;;15.88;9.20;;;;;;;;;;5094217;28;20077;-93
2021/08/10 04:41:07;;;;;;;15.57;9.40;;;;;;;;;;5085195;28;20476;-92
2021/08/10 04:43:34;;;;;;;16.52;9.27;;;;;;;;;;5094407;28;20121;-92
2021/08/10 04:45:59;;;;;;;14.38;9.02;;;;;;;;;;5093736;28;20063;-92
2021/08/10 04:48:24;;;;;;;20.17;8.80;;;;;;;;;;5104981;28;20441;-92
2021/08/10 04:50:50;;;;;;;16.95;8.45;;;;;;;;;;5073689;28;20028;-92
2021/08/10 04:53:15;;;;;;;19.30;8.43;;;;;;;;;;5085710;28;20039;-92
2021/08/10 04:55:40;;;;;;;15.60;9.57;;;;;;;;;;5093475;28;20381;-92
2021/08/10 04:58:06;;;;;;;17.38;8.82;;;;;;;;;;5093581;28;20568;-93
2021/08/10 05:00:32;;;;;;;15.52;8.13;;;;;;;;;;5093714;28;20025;-91
2021/08/10 05:02:57;;;;;;;15.43;8.23;;;;;;;;;;5094114;28;20031;-92
2021/08/10 05:05:23;;;;;;;15.30;8.45;;;;;;;;;;5093360;28;20032;-91
2021/08/10 05:07:48;;;;;;;20.25;8.38;;;;;;;;;;5109640;28;20130;-92
2021/08/10 05:10:13;;;;;;;17.00;8.88;;;;;;;;;;5092375;28;20114;-93
2021/08/10 05:12:39;;;;;;;18.85;10.40;;;;;;;;;;5093173;28;20077;-92
2021/08/10 05:15:06;;;;;;;19.55;9.07;;;;;;;;;;5093069;28;20028;-92
2021/08/10 05:17:31;;;;;;;15.73;8.38;;;;;;;;;;5093090;28;20047;-90
2021/08/10 05:19:57;;;;;;;14.27;8.27;;;;;;;;;;5094154;28;20060;-92
2021/08/10 05:22:22;;;;;;;13.25;7.72;;;;;;;;;;5093952;28;20095;-91
2021/08/10 05:24:47;;;;;;;11.70;7.05;;;;;;;;;;5092374;28;20027;-92
2021/08/10 05:27:13;;;;;;;13.07;7.38;;;;;;;;;;5092178;28;20012;-91
2021/08/10 05:29:38;;;;;;;11.43;6.97;;;;;;;;;;5092733;28;20036;-91
2021/08/10 05:32:04;;;;;;;14.75;6.65;;;;;;;;;;5092314;28;20028;-92
2021/08/10 05:34:29;;;;;;;10.85;7.20;;;;;;;;;;5092541;28;20425;-92
2021/08/10 05:36:55;;;;;;;11.88;5.20;;;;;;;;;;5091716;28;20085;-91
2021/08/10 05:39:20;;;;;;;10.60;5.30;;;;;;;;;;5093367;28;20070;-91
2021/08/10 05:41:46;;;;;;;11.18;5.85;;;;;;;;;;5091909;28;20035;-91
2021/08/10 05:44:13;;;;;;;9.50;5.70;;;;;;;;;;5094899;28;20028;-94
2021/08/10 05:46:39;;;;;;;12.35;5.43;;;;;;;;;;5093360;28;20032;-92
2021/08/10 05:49:04;;;;;;;8.30;4.07;;;;;;;;;;5093422;28;20025;-93
2021/08/10 05:51:31;;;;;;;9.93;4.63;;;;;;;;;;5093020;28;20030;-93
2021/08/10 05:53:56;;;;;;;10.57;4.82;;;;;;;;;;5093003;28;20527;-93
2021/08/10 05:56:22;;;;;;;10.90;4.50;;;;;;;;;;5093116;28;20048;-93
2021/08/10 05:58:47;;;;;;;9.50;4.60;;;;;;;;;;5093494;28;20492;-93
2021/08/10 06:01:12;;;;;;;12.15;4.40;;;;;;;;;;5093350;28;20032;-93
2021/08/10 06:03:38;;;;;;;8.13;4.45;;;;;;;;;;5093208;28;20027;-93
2021/08/10 06:06:03;;;;;;;8.43;3.67;;;;;;;;;;5093114;28;20130;-91
2021/08/10 06:08:29;;;;;;;10.38;3.90;;;;;;;;;;5092992;28;20035;-94
2021/08/10 06:10:54;;;;;;;8.10;3.70;;;;;;;;;;5093355;28;20102;-92
2021/08/10 06:13:20;;;;;;;8.57;4.25;;;;;;;;;;5093023;28;20039;-94
2021/08/10 06:15:49;;;;;;;9.63;4.20;;;;;;;;;;5116444;28;20031;-94
2021/08/10 06:18:21;;;;;;;9.30;5.20;;;;;;;;;;5114113;28;20007;-95
2021/08/10 06:20:46;;;;;;;9.38;5.32;;;;;;;;;;5106863;28;20118;-96
2021/08/10 06:23:12;;;;;;;19.02;5.90;;;;;;;;;;5103841;28;20020;-96
2021/08/10 06:25:43;;;;;;;10.13;6.15;;;;;;;;;;5109506;28;20000;-95
2021/08/10 06:28:15;;;;;;;13.82;6.78;;;;;;;;;;5112745;28;20047;-95
2021/08/10 06:30:41;;;;;;;12.88;7.72;;;;;;;;;;5116484;28;20032;-96
2021/08/10 06:33:14;;;;;;;12.73;6.55;;;;;;;;;;5093763;28;20036;-94
2021/08/10 06:35:41;;;;;;;12.25;6.32;;;;;;;;;;5099217;28;20092;-94
2021/08/10 06:38:14;;;;;;;7.40;5.78;;;;;;;;;;5111884;28;20028;-95
2021/08/10 06:40:40;;;;;;;10.07;5.80;;;;;;;;;;5095969;28;20028;-95
2021/08/10 06:43:08;;;;;;;10.55;5.68;;;;;;;;;;5090728;28;20501;-96
2021/08/10 06:45:34;;;;;;;14.45;6.20;;;;;;;;;;5081933;28;20099;-95
2021/08/10 06:47:59;;;;;;;12.30;6.38;;;;;;;;;;5079812;28;20032;-95
2021/08/10 06:50:25;;;;;;;9.00;5.40;;;;;;;;;;5093660;28;20104;-96
2021/08/10 06:52:53;;;;;;;14.15;5.43;;;;;;;;;;5092390;28;20034;-95
2021/08/10 06:55:20;;;;;;;10.20;4.60;;;;;;;;;;5088386;28;20047;-95
2021/08/10 06:58:02;;;;;;;9.43;5.05;;;;;;;;;;5092937;28;20104;-96
2021/08/10 07:00:32;;;;;;;6.45;4.25;;;;;;;;;;5076701;28;20037;-96
2021/08/10 07:02:59;;;;;;;9.60;4.72;;;;;;;;;;5094249;28;20033;-94
2021/08/10 07:06:10;;;;;;;10.18;4.63;;;;;;;;;;5095451;28;20051;-94
2021/08/10 07:09:11;;;;;;;9.52;5.00;;;;;;;;;;5076537;28;20049;-96
2021/08/10 07:12:06;;;;;;;12.50;5.00;;;;;;;;;;5081590;28;20028;-96
2021/08/10 07:14:36;;;;;;;11.10;4.50;;;;;;;;;;5113289;28;20035;-95
2021/08/10 07:17:09;;;;;;;7.88;3.85;;;;;;;;;;5130940;28;20032;-96
2021/08/10 07:19:52;;;;;;;7.60;4.25;;;;;;;;;;5095900;28;20020;-96
2021/08/10 07:22:25;;;;;;;6.38;3.25;;;;;;;;;;5097828;28;20100;-96
2021/08/10 07:28:05;;;;;;;5.63;3.45;;;;;;;;;;5097698;28;20075;-96
2021/08/10 07:30:52;;;;;;;5.65;3.40;;;;;;;;;;5079051;28;20033;-95
2021/08/10 07:33:22;;;;;;;7.05;3.20;;;;;;;;;;5086824;28;20033;-95
2021/08/10 07:36:27;;;;;;;5.43;2.90;;;;;;;;;;5099387;28;20072;-96
2021/08/10 07:38:55;;;;;;;5.63;2.63;;;;;;;;;;5097997;28;20016;-95
2021/08/10 07:44:36;;;;;;;2.80;2.00;;;;;;;;;;5086212;28;20067;-94
2021/08/10 07:47:03;;;;;;;5.53;1.90;;;;;;;;;;5075775;28;20036;-95
2021/08/10 07:49:36;;;;;;;4.93;2.20;;;;;;;;;;5094012;28;20031;-96
2021/08/10 07:55:24;;;;;;;3.97;1.90;;;;;;;;;;5074341;28;20091;-96
2021/08/10 07:57:49;;;;;;;6.18;2.05;;;;;;;;;;5027578;28;20052;-94
2021/08/10 08:00:15;;;;;;;7.75;2.15;;;;;;;;;;5028471;28;20546;-96
2021/08/10 08:02:40;;;;;;;5.90;1.90;;;;;;;;;;5061143;28;20120;-96
2021/08/10 08:05:06;;;;;;;6.57;2.03;;;;;;;;;;5076179;28;20028;-94
2021/08/10 08:07:33;;;;;;;10.20;2.58;;;;;;;;;;5048522;28;20356;-95
2021/08/10 08:10:16;;;;;;;6.43;2.20;;;;;;;;;;5053782;28;20013;-95
2021/08/10 08:12:49;;;;;;;8.40;2.20;;;;;;;;;;5062184;28;20056;-96
2021/08/10 08:15:15;;;;;;;8.57;2.92;;;;;;;;;;5050473;28;20033;-96
2021/08/10 08:17:46;;;;;;;6.93;2.22;;;;;;;;;;5072825;28;20093;-95
2021/08/10 08:20:13;;;;;;;5.97;2.10;;;;;;;;;;5045822;28;20030;-96
2021/08/10 08:22:38;;;;;;;6.85;2.08;;;;;;;;;;5057125;28;20033;-95
2021/08/10 08:25:07;;;;;;;6.68;1.70;;;;;;;;;;5070298;28;20100;-96
2021/08/10 08:27:32;;;;;;;5.53;1.67;;;;;;;;;;5075335;28;20470;-95
2021/08/10 08:29:58;;;;;;;4.18;1.65;;;;;;;;;;5078025;28;20036;-95
2021/08/10 08:32:23;;;;;;;5.95;1.98;;;;;;;;;;5077241;28;20028;-96
2021/08/10 08:34:49;;;;;;;6.60;1.70;;;;;;;;;;5104325;28;20118;-96
2021/08/10 08:37:17;;;;;;;4.30;1.63;;;;;;;;;;5082348;28;20063;-96
2021/08/10 08:39:42;;;;;;;5.72;1.80;;;;;;;;;;5080080;28;20492;-96
2021/08/10 08:42:10;;;;;;;5.18;1.67;;;;;;;;;;5082462;28;20016;-95
2021/08/10 08:44:36;;;;;;;4.85;1.98;;;;;;;;;;5081741;28;20047;-96
2021/08/10 08:47:06;;;;;;;4.40;1.40;;;;;;;;;;5096708;28;20039;-95
2021/08/10 08:49:33;;;;;;;4.78;1.55;;;;;;;;;;5092701;28;20020;-94
2021/08/10 08:52:09;;;;;;;6.88;1.73;;;;;;;;;;5086079;28;20024;-96
2021/08/10 08:54:34;;;;;;;3.25;1.33;;;;;;;;;;5091423;28;20020;-96
2021/08/10 08:57:00;;;;;;;3.88;1.55;;;;;;;;;;5085212;28;20044;-94
2021/08/10 08:59:27;;;;;;;4.95;1.35;;;;;;;;;;5092133;28;20032;-96
2021/08/10 09:01:53;;;;;;;4.57;1.63;;;;;;;;;;5078498;28;20391;-92
2021/08/10 09:04:20;;;;;;;5.55;1.48;;;;;;;;;;5077166;28;20031;-93
2021/08/10 09:06:46;;;;;;;3.92;1.33;;;;;;;;;;5076841;28;20039;-96
2021/08/10 09:09:29;;;;;;;3.30;1.20;;;;;;;;;;5079568;28;20060;-95
2021/08/10 09:12:15;;;;;;;3.33;1.92;;;;;;;;;;5080343;28;20132;-96
2021/08/10 09:14:50;;;;;;;4.32;1.58;;;;;;;;;;5090542;28;20028;-96
2021/08/10 09:17:18;;;;;;;3.03;1.25;;;;;;;;;;5079581;28;20055;-94
2021/08/10 09:19:52;;;;;;;4.38;1.33;;;;;;;;;;5076305;28;20102;-93
2021/08/10 09:22:25;;;;;;;4.25;1.30;;;;;;;;;;5056345;28;20031;-96
2021/08/10 09:25:00;;;;;;;3.30;1.40;;;;;;;;;;5056682;28;20024;-94
2021/08/10 09:27:37;;;;;;;4.18;1.30;;;;;;;;;;5064841;28;20111;-95
2021/08/10 09:30:09;;;;;;;4.35;1.33;;;;;;;;;;5076160;28;20063;-95
2021/08/10 09:32:53;;;;;;;3.17;1.27;;;;;;;;;;5076604;28;20107;-94
2021/08/10 09:35:21;;;;;;;4.00;1.40;;;;;;;;;;5073703;28;20443;-94
2021/08/10 09:38:17;;;;;;;3.15;1.30;;;;;;;;;;5075452;28;20039;-93
2021/08/10 09:40:48;;;;;;;3.47;1.35;;;;;;;;;;5088266;28;20086;-95
2021/08/10 09:43:35;;;;;;;2.78;1.23;;;;;;;;;;5086597;28;20546;-92
2021/08/10 09:46:20;;;;;;;4.13;1.30;;;;;;;;;;5076707;28;20035;-94
2021/08/10 09:48:49;;;;;;;3.35;1.33;;;;;;;;;;5076015;28;20054;-94
2021/08/10 09:51:17;;;;;;;4.40;1.40;;;;;;;;;;5075500;28;20051;-93
2021/08/10 09:53:52;;;;;;;3.13;1.35;;;;;;;;;;5075633;28;20019;-94
2021/08/10 09:56:18;;;;;;;3.85;1.20;;;;;;;;;;5074210;28;20125;-93
2021/08/10 09:59:21;;;;;;;2.70;1.40;;;;;;;;;;5077702;28;20634;-95
2021/08/10 10:01:53;;;;;;;4.85;1.40;;;;;;;;;;5072548;28;20031;-93
2021/08/10 10:04:27;;;;;;;2.85;1.30;;;;;;;;;;5076375;28;20154;-93
2021/08/10 10:06:55;;;;;;;4.18;1.40;;;;;;;;;;5077665;28;20035;-93
2021/08/10 10:09:22;;;;;;;4.68;1.30;;;;;;;;;;5092948;28;20028;-94
2021/08/10 10:11:49;;;;;;;4.50;1.60;;;;;;;;;;5078558;28;20015;-95
2021/08/10 10:14:15;;;;;;;4.18;1.35;;;;;;;;;;5078086;28;20030;-94
2021/08/10 10:16:44;;;;;;;4.65;1.70;;;;;;;;;;5075240;28;20031;-93
2021/08/10 10:19:12;;;;;;;6.63;1.63;;;;;;;;;;5074675;28;20481;-94
2021/08/10 10:21:45;;;;;;;3.25;1.40;;;;;;;;;;5075082;28;20020;-93
2021/08/10 10:24:17;;;;;;;3.50;1.50;;;;;;;;;;5081105;28;20057;-95
2021/08/10 10:27:00;;;;;;;3.55;1.40;;;;;;;;;;5090870;28;20115;-95
2021/08/10 10:29:26;;;;;;;5.63;1.40;;;;;;;;;;5087749;28;20044;-96
2021/08/10 10:32:05;;;;;;;5.25;1.63;;;;;;;;;;5092590;28;20038;-96
2021/08/10 10:34:41;;;;;;;3.45;1.50;;;;;;;;;;5098804;28;20021;-95
2021/08/10 10:37:09;;;;;;;3.97;1.73;;;;;;;;;;5099509;28;20552;-96
2021/08/10 10:39:41;;;;;;;5.20;1.60;;;;;;;;;;5029264;28;20040;-94
2021/08/10 10:42:56;;;;;;;3.42;1.40;;;;;;;;;;5085086;28;20084;-92
2021/08/10 10:46:29;;;;;;;3.20;1.48;;;;;;;;;;5107493;28;20019;-96
2021/08/10 10:49:42;;;;;;;3.83;1.50;;;;;;;;;;5076896;28;20044;-94
2021/08/10 10:55:49;;;;;;;3.67;1.52;;;;;;;;;;5118415;28;20065;-94
2021/08/10 10:58:48;;;;;;;3.75;1.38;;;;;;;;;;5098197;28;20054;-96
2021/08/10 11:01:31;;;;;;;4.20;1.50;;;;;;;;;;5115556;28;20028;-95
2021/08/10 11:04:03;;;;;;;6.00;1.40;;;;;;;;;;5100133;23;20050;-72
2021/08/10 11:06:32;;;;;;;4.95;1.55;;;;;;;;;;5024594;28;20393;-71
2021/08/10 11:08:59;;;;;;;4.20;1.58;;;;;;;;;;5014708;28;20029;-72
2021/08/10 11:11:57;;;;;;;3.55;1.70;;;;;;;;;;5011500;28;20474;-71
2021/08/10 11:14:35;;;;;;;5.20;1.67;;;;;;;;;;4978423;28;20045;-72
2021/08/10 11:17:12;;;;;;;3.88;1.70;;;;;;;;;;5015187;28;20037;-70
2021/08/10 11:19:42;;;;;;;2.88;1.23;;;;;;;;;;5012130;28;20036;-71
2021/08/10 11:22:17;;;;;;;3.85;1.70;;;;;;;;;;5015392;28;20034;-72
2021/08/10 11:24:51;;;;;;;3.45;1.33;;;;;;;;;;5015331;28;20452;-71
2021/08/10 11:27:32;;;;;;;4.60;1.50;;;;;;;;;;5013092;28;20025;-71
2021/08/10 11:29:59;;;;;;;4.85;1.45;;;;;;;;;;5014994;28;20037;-72
2021/08/10 11:32:38;;;;;;;4.60;1.52;;;;;;;;;;5014500;28;20365;-72
2021/08/10 11:35:39;;;;;;;2.97;1.25;;;;;;;;;;5014895;28;20049;-72
2021/08/10 11:38:16;;;;;;;4.78;1.10;;;;;;;;;;5009289;28;20022;-72
2021/08/10 11:41:04;;;;;;;3.35;1.40;;;;;;;;;;5014380;28;20030;-72
2021/08/10 11:43:41;;;;;;;4.53;1.40;;;;;;;;;;5014706;28;20118;-72
2021/08/10 11:46:13;;;;;;;5.10;1.42;;;;;;;;;;5014450;28;20029;-72
2021/08/10 11:48:47;;;;;;;3.78;1.50;;;;;;;;;;5014755;28;20030;-71
2021/08/10 11:51:28;;;;;;;5.13;1.42;;;;;;;;;;5014444;28;20061;-71
2021/08/10 11:53:55;;;;;;;4.63;1.63;;;;;;;;;;5014304;28;20030;-72
2021/08/10 11:56:27;;;;;;;5.68;1.60;;;;;;;;;;5013907;28;20030;-72
2021/08/10 11:58:53;;;;;;;4.70;1.38;;;;;;;;;;5013784;28;20037;-72
2021/08/10 12:01:19;;;;;;;4.35;1.60;;;;;;;;;;5014126;28;20450;-72
2021/08/10 12:03:45;;;;;;;3.85;1.60;;;;;;;;;;5014515;28;20026;-71
2021/08/10 12:06:11;;;;;;;5.63;1.70;;;;;;;;;;5013651;28;20040;-71
2021/08/10 12:08:37;;;;;;;3.33;1.35;;;;;;;;;;5013864;28;20033;-72
2021/08/10 12:11:03;;;;;;;5.18;1.65;;;;;;;;;;5011085;28;20022;-71
2021/08/10 12:13:29;;;;;;;3.65;1.52;;;;;;;;;;5013914;28;20413;-72
2021/08/10 12:15:55;;;;;;;4.03;1.38;;;;;;;;;;5012175;28;20038;-72
2021/08/10 12:18:23;;;;;;;6.90;1.60;;;;;;;;;;5014497;28;20033;-71
2021/08/10 12:21:01;;;;;;;5.55;1.50;;;;;;;;;;5011455;28;20030;-71
2021/08/10 12:23:37;;;;;;;3.30;1.30;;;;;;;;;;5013712;28;20044;-71
2021/08/10 12:26:29;;;;;;;3.88;1.65;;;;;;;;;;5011331;28;20021;-71
2021/08/10 12:29:00;;;;;;;5.00;1.65;;;;;;;;;;5008166;28;20389;-71
2021/08/10 12:31:27;;;;;;;4.80;1.40;;;;;;;;;;5013692;28;20022;-71
2021/08/10 12:33:57;;;;;;;3.60;1.38;;;;;;;;;;5010228;28;20033;-71
2021/08/10 12:36:24;;;;;;;5.15;1.90;;;;;;;;;;5012451;28;20030;-71
2021/08/10 12:38:51;;;;;;;5.70;1.70;;;;;;;;;;5022872;28;20056;-71
2021/08/10 12:41:22;;;;;;;3.10;1.45;;;;;;;;;;5002877;28;20048;-71
2021/08/10 12:43:50;;;;;;;3.42;1.27;;;;;;;;;;5017129;28;20030;-71
2021/08/10 12:46:29;;;;;;;3.30;1.50;;;;;;;;;;5013537;28;20030;-71
2021/08/10 12:49:14;;;;;;;2.95;1.50;;;;;;;;;;5013972;28;20405;-71
2021/08/10 12:51:56;;;;;;;6.50;1.52;;;;;;;;;;5013573;28;20450;-71
2021/08/10 12:54:23;;;;;;;3.97;1.23;;;;;;;;;;5005233;28;20022;-71
2021/08/10 12:56:49;;;;;;;2.78;1.48;;;;;;;;;;4995877;28;20026;-71
2021/08/10 12:59:15;;;;;;;3.60;1.25;;;;;;;;;;5011274;28;20032;-71
2021/08/10 13:01:42;;;;;;;3.50;1.38;;;;;;;;;;5002078;28;20040;-71
2021/08/10 13:04:10;;;;;;;2.88;1.40;;;;;;;;;;5013318;28;20057;-71
2021/08/10 13:06:36;;;;;;;2.92;1.33;;;;;;;;;;5007888;28;20022;-71
2021/08/10 13:09:03;;;;;;;5.40;1.40;;;;;;;;;;5011829;28;20026;-71
2021/08/10 13:11:28;;;;;;;3.38;1.52;;;;;;;;;;5008728;28;20029;-71
2021/08/10 13:14:11;;;;;;;3.78;1.35;;;;;;;;;;5013160;28;20057;-71
2021/08/10 13:16:44;;;;;;;4.35;1.48;;;;;;;;;;5010956;28;20022;-71
2021/08/10 13:19:17;;;;;;;4.05;1.50;;;;;;;;;;5010308;28;20462;-71
2021/08/10 13:21:49;;;;;;;5.68;1.42;;;;;;;;;;5004722;28;20041;-72
2021/08/10 13:24:18;;;;;;;3.20;1.45;;;;;;;;;;5012871;28;20104;-71
2021/08/10 13:26:46;;;;;;;5.13;1.60;;;;;;;;;;5005023;28;20101;-71
2021/08/10 13:29:13;;;;;;;5.50;1.67;;;;;;;;;;5009770;28;20022;-71
2021/08/10 13:31:52;;;;;;;3.83;1.45;;;;;;;;;;5007548;28;20088;-70
2021/08/10 13:34:19;;;;;;;4.65;1.60;;;;;;;;;;5008736;28;20022;-70
2021/08/10 13:36:46;;;;;;;2.78;1.38;;;;;;;;;;5009546;28;20026;-71
2021/08/10 13:39:13;;;;;;;3.05;1.40;;;;;;;;;;5010177;28;20481;-71
2021/08/10 13:41:43;;;;;;;5.95;1.40;;;;;;;;;;4992734;28;20026;-72
2021/08/10 13:44:10;;;;;;;3.65;1.20;;;;;;;;;;5011469;28;20029;-72
2021/08/10 13:46:37;;;;;;;3.38;1.45;;;;;;;;;;5011619;28;20018;-71
2021/08/10 13:49:05;;;;;;;2.50;1.27;;;;;;;;;;4992980;28;20117;-71
2021/08/10 13:51:31;;;;;;;3.17;1.33;;;;;;;;;;5011635;28;20034;-71
2021/08/10 13:53:57;;;;;;;2.95;1.27;;;;;;;;;;5009807;28;20411;-70
2021/08/10 13:56:25;;;;;;;4.38;1.23;;;;;;;;;;5010988;28;20030;-71
2021/08/10 13:58:50;;;;;;;3.53;1.35;;;;;;;;;;4993298;28;20065;-70
2021/08/10 14:01:21;;;;;;;4.25;1.60;;;;;;;;;;5011747;28;20076;-71
2021/08/10 14:03:46;;;;;;;4.05;1.48;;;;;;;;;;5011490;28;20066;-71
2021/08/10 14:06:12;;;;;;;4.40;1.40;;;;;;;;;;5011471;28;20050;-71
2021/08/10 14:08:38;;;;;;;3.70;1.30;;;;;;;;;;5011159;28;20492;-71
2021/08/10 14:11:04;;;;;;;3.53;1.30;;;;;;;;;;5010267;28;20025;-70
2021/08/10 14:13:30;;;;;;;3.78;1.10;;;;;;;;;;5010891;28;20022;-70
2021/08/10 14:15:56;;;;;;;2.63;1.10;;;;;;;;;;5010004;28;20060;-71
2021/08/10 14:18:21;;;;;;;3.38;1.20;;;;;;;;;;5011392;28;20061;-71
2021/08/10 14:20:47;;;;;;;3.58;1.50;;;;;;;;;;5011510;28;20484;-71
2021/08/10 14:23:13;;;;;;;3.03;1.35;;;;;;;;;;5011413;28;20034;-71
2021/08/10 14:25:39;;;;;;;3.40;1.40;;;;;;;;;;5010798;28;20393;-71
2021/08/10 14:28:04;;;;;;;3.40;1.38;;;;;;;;;;5011019;28;20026;-71
2021/08/10 14:30:30;;;;;;;3.10;1.23;;;;;;;;;;5010951;28;20125;-71
2021/08/10 14:32:57;;;;;;;2.22;1.30;;;;;;;;;;5010855;28;20323;-71
2021/08/10 14:35:25;;;;;;;3.03;1.30;;;;;;;;;;5010984;28;20026;-71
2021/08/10 14:37:50;;;;;;;2.95;1.20;;;;;;;;;;5009227;28;20425;-70
2021/08/10 14:40:16;;;;;;;2.30;1.30;;;;;;;;;;5010403;28;20025;-71
2021/08/10 14:42:43;;;;;;;5.22;1.17;;;;;;;;;;5009750;28;20101;-70
2021/08/10 14:45:09;;;;;;;3.13;1.40;;;;;;;;;;5010830;28;20112;-70
2021/08/10 14:47:36;;;;;;;3.65;1.40;;;;;;;;;;5011643;28;20109;-71
2021/08/10 14:50:04;;;;;;;3.13;1.30;;;;;;;;;;5017326;28;20355;-71
2021/08/10 14:52:30;;;;;;;2.92;1.45;;;;;;;;;;4991277;28;20033;-71
2021/08/10 14:54:56;;;;;;;4.20;1.42;;;;;;;;;;4993056;28;20033;-71
2021/08/10 14:57:21;;;;;;;3.42;1.60;;;;;;;;;;5008949;28;20022;-71
2021/08/10 14:59:46;;;;;;;3.13;1.58;;;;;;;;;;5010767;28;20541;-70
2021/08/10 15:02:12;;;;;;;2.75;1.55;;;;;;;;;;5009995;28;20022;-70
2021/08/10 15:04:38;;;;;;;4.00;1.67;;;;;;;;;;5010502;28;20512;-70
2021/08/10 15:07:03;;;;;;;3.83;1.38;;;;;;;;;;5010638;28;20072;-71
2021/08/10 15:09:29;;;;;;;6.63;1.77;;;;;;;;;;5010739;28;20631;-71
2021/08/10 15:11:54;;;;;;;4.88;1.83;;;;;;;;;;5009838;28;20037;-71
2021/08/10 15:14:20;;;;;;;5.32;2.00;;;;;;;;;;5010635;28;20385;-71
2021/08/10 15:16:45;;;;;;;3.90;1.80;;;;;;;;;;5009913;28;20116;-71
2021/08/10 15:19:12;;;;;;;5.90;1.92;;;;;;;;;;5011144;28;20443;-71
2021/08/10 15:21:37;;;;;;;3.30;2.03;;;;;;;;;;5010747;28;20026;-71
2021/08/10 15:24:03;;;;;;;3.90;1.77;;;;;;;;;;5008210;28;20701;-70